sensor_id;sensor_type;location;lat;lon;timestamp;temperature;humidity
8172;DHT22;4127;47.908;10.850;2022-08-14T00:01:52;23.70;54.40
8172;DHT22;4127;47.908;10.850;2022-08-14T00:04:24;23.70;54.40
8172;DHT22;4127;47.908;10.850;2022-08-14T00:07:01;23.60;54.40
8172;DHT22;4127;47.908;10.850;2022-08-14T00:09:28;23.60;54.30
8172;DHT22;4127;47.908;10.850;2022-08-14T00:11:58;23.60;54.40
8172;DHT22;4127;47.908;10.850;2022-08-14T00:14:26;23.60;54.40
8172;DHT22;4127;47.908;10.850;2022-08-14T00:16:54;23.60;54.40
8172;DHT22;4127;47.908;10.850;2022-08-14T00:19:21;23.60;54.40
8172;DHT22;4127;47.908;10.850;2022-08-14T00:21:50;23.60;54.40
8172;DHT22;4127;47.908;10.850;2022-08-14T00:24:21;23.60;54.50
8172;DHT22;4127;47.908;10.850;2022-08-14T00:26:55;23.60;54.50
8172;DHT22;4127;47.908;10.850;2022-08-14T00:29:22;23.60;54.50
8172;DHT22;4127;47.908;10.850;2022-08-14T00:31:51;23.60;54.50
8172;DHT22;4127;47.908;10.850;2022-08-14T00:34:22;23.60;54.50
8172;DHT22;4127;47.908;10.850;2022-08-14T00:37:03;23.60;54.40
8172;DHT22;4127;47.908;10.850;2022-08-14T00:39:31;23.50;54.40
8172;DHT22;4127;47.908;10.850;2022-08-14T00:41:58;23.50;54.40
8172;DHT22;4127;47.908;10.850;2022-08-14T00:44:27;23.60;54.50
8172;DHT22;4127;47.908;10.850;2022-08-14T00:47:02;23.60;54.50
8172;DHT22;4127;47.908;10.850;2022-08-14T00:49:36;23.60;54.50
8172;DHT22;4127;47.908;10.850;2022-08-14T00:52:13;23.60;54.50
8172;DHT22;4127;47.908;10.850;2022-08-14T00:54:45;23.50;54.40
8172;DHT22;4127;47.908;10.850;2022-08-14T00:57:12;23.50;54.40
8172;DHT22;4127;47.908;10.850;2022-08-14T00:59:39;23.50;54.40
8172;DHT22;4127;47.908;10.850;2022-08-14T01:02:07;23.50;54.40
8172;DHT22;4127;47.908;10.850;2022-08-14T01:04:35;23.50;54.40
8172;DHT22;4127;47.908;10.850;2022-08-14T01:07:21;23.50;54.40
8172;DHT22;4127;47.908;10.850;2022-08-14T01:09:51;23.50;54.40
8172;DHT22;4127;47.908;10.850;2022-08-14T01:12:19;23.50;54.40
8172;DHT22;4127;47.908;10.850;2022-08-14T01:14:56;23.50;54.40
8172;DHT22;4127;47.908;10.850;2022-08-14T01:17:25;23.40;54.40
8172;DHT22;4127;47.908;10.850;2022-08-14T01:20:16;23.40;54.90
8172;DHT22;4127;47.908;10.850;2022-08-14T01:23:13;23.40;54.40
8172;DHT22;4127;47.908;10.850;2022-08-14T01:25:47;23.40;54.40
8172;DHT22;4127;47.908;10.850;2022-08-14T01:28:14;23.40;54.40
8172;DHT22;4127;47.908;10.850;2022-08-14T01:31:01;23.40;54.30
8172;DHT22;4127;47.908;10.850;2022-08-14T01:33:31;23.40;54.30
8172;DHT22;4127;47.908;10.850;2022-08-14T01:36:19;23.40;54.40
8172;DHT22;4127;47.908;10.850;2022-08-14T01:38:52;23.40;54.40
8172;DHT22;4127;47.908;10.850;2022-08-14T01:41:23;23.40;54.40
8172;DHT22;4127;47.908;10.850;2022-08-14T01:43:59;23.40;54.40
8172;DHT22;4127;47.908;10.850;2022-08-14T01:46:35;23.40;54.40
8172;DHT22;4127;47.908;10.850;2022-08-14T01:49:09;23.40;54.40
8172;DHT22;4127;47.908;10.850;2022-08-14T01:51:38;23.40;54.40
8172;DHT22;4127;47.908;10.850;2022-08-14T01:54:12;23.40;54.40
8172;DHT22;4127;47.908;10.850;2022-08-14T01:56:40;23.40;54.40
8172;DHT22;4127;47.908;10.850;2022-08-14T02:01:46;23.40;54.40
8172;DHT22;4127;47.908;10.850;2022-08-14T02:04:26;23.40;54.40
8172;DHT22;4127;47.908;10.850;2022-08-14T02:07:13;23.40;54.40
8172;DHT22;4127;47.908;10.850;2022-08-14T02:09:41;23.30;54.30
8172;DHT22;4127;47.908;10.850;2022-08-14T02:12:08;23.30;54.30
8172;DHT22;4127;47.908;10.850;2022-08-14T02:14:45;23.30;54.30
8172;DHT22;4127;47.908;10.850;2022-08-14T02:17:27;23.30;54.30
8172;DHT22;4127;47.908;10.850;2022-08-14T02:19:56;23.30;54.30
8172;DHT22;4127;47.908;10.850;2022-08-14T02:22:24;23.30;54.40
8172;DHT22;4127;47.908;10.850;2022-08-14T02:25:11;23.30;54.40
8172;DHT22;4127;47.908;10.850;2022-08-14T02:27:39;23.30;54.40
8172;DHT22;4127;47.908;10.850;2022-08-14T02:30:28;23.30;54.30
8172;DHT22;4127;47.908;10.850;2022-08-14T02:32:57;23.30;54.30
8172;DHT22;4127;47.908;10.850;2022-08-14T02:35:24;23.30;54.30
8172;DHT22;4127;47.908;10.850;2022-08-14T02:37:59;23.30;54.30
8172;DHT22;4127;47.908;10.850;2022-08-14T02:40:30;23.30;54.30
8172;DHT22;4127;47.908;10.850;2022-08-14T02:43:00;23.30;54.30
8172;DHT22;4127;47.908;10.850;2022-08-14T02:45:28;23.30;54.30
8172;DHT22;4127;47.908;10.850;2022-08-14T02:48:12;23.30;54.30
8172;DHT22;4127;47.908;10.850;2022-08-14T02:51:02;23.30;54.30
8172;DHT22;4127;47.908;10.850;2022-08-14T02:53:30;23.20;54.30
8172;DHT22;4127;47.908;10.850;2022-08-14T02:55:59;23.20;54.30
8172;DHT22;4127;47.908;10.850;2022-08-14T02:58:30;23.20;54.30
8172;DHT22;4127;47.908;10.850;2022-08-14T03:00:58;23.20;54.30
8172;DHT22;4127;47.908;10.850;2022-08-14T03:03:27;23.20;54.40
8172;DHT22;4127;47.908;10.850;2022-08-14T03:05:58;23.20;54.30
8172;DHT22;4127;47.908;10.850;2022-08-14T03:08:26;23.20;54.40
8172;DHT22;4127;47.908;10.850;2022-08-14T03:10:58;23.20;54.40
8172;DHT22;4127;47.908;10.850;2022-08-14T03:13:25;23.20;54.40
8172;DHT22;4127;47.908;10.850;2022-08-14T03:15:55;23.20;54.60
8172;DHT22;4127;47.908;10.850;2022-08-14T03:18:27;23.20;54.40
8172;DHT22;4127;47.908;10.850;2022-08-14T03:21:04;23.20;54.40
8172;DHT22;4127;47.908;10.850;2022-08-14T03:23:31;23.20;54.40
8172;DHT22;4127;47.908;10.850;2022-08-14T03:26:06;23.20;54.40
8172;DHT22;4127;47.908;10.850;2022-08-14T03:28:34;23.20;54.50
8172;DHT22;4127;47.908;10.850;2022-08-14T03:31:05;23.20;54.40
8172;DHT22;4127;47.908;10.850;2022-08-14T03:33:38;23.20;54.40
8172;DHT22;4127;47.908;10.850;2022-08-14T03:36:08;23.20;54.40
8172;DHT22;4127;47.908;10.850;2022-08-14T03:38:58;23.20;54.40
8172;DHT22;4127;47.908;10.850;2022-08-14T03:41:45;23.20;54.40
8172;DHT22;4127;47.908;10.850;2022-08-14T03:44:13;23.20;54.40
8172;DHT22;4127;47.908;10.850;2022-08-14T03:47:00;23.20;54.30
8172;DHT22;4127;47.908;10.850;2022-08-14T03:49:29;23.20;54.30
8172;DHT22;4127;47.908;10.850;2022-08-14T03:51:57;23.20;54.30
8172;DHT22;4127;47.908;10.850;2022-08-14T03:54:27;23.20;54.30
8172;DHT22;4127;47.908;10.850;2022-08-14T03:56:54;23.20;54.30
8172;DHT22;4127;47.908;10.850;2022-08-14T03:59:29;23.20;54.20
8172;DHT22;4127;47.908;10.850;2022-08-14T04:01:57;23.20;54.30
8172;DHT22;4127;47.908;10.850;2022-08-14T04:04:31;23.20;54.20
8172;DHT22;4127;47.908;10.850;2022-08-14T04:06:59;23.10;54.20
8172;DHT22;4127;47.908;10.850;2022-08-14T04:09:26;23.10;54.20
8172;DHT22;4127;47.908;10.850;2022-08-14T04:11:54;23.10;54.30
8172;DHT22;4127;47.908;10.850;2022-08-14T04:14:25;23.10;54.30
8172;DHT22;4127;47.908;10.850;2022-08-14T04:16:51;23.10;54.30
8172;DHT22;4127;47.908;10.850;2022-08-14T04:19:18;23.10;54.40
8172;DHT22;4127;47.908;10.850;2022-08-14T04:21:49;23.10;54.30
8172;DHT22;4127;47.908;10.850;2022-08-14T04:24:30;23.10;54.30
8172;DHT22;4127;47.908;10.850;2022-08-14T04:27:09;23.20;54.30
8172;DHT22;4127;47.908;10.850;2022-08-14T04:29:40;23.10;54.30
8172;DHT22;4127;47.908;10.850;2022-08-14T04:32:09;23.10;54.30
8172;DHT22;4127;47.908;10.850;2022-08-14T04:34:56;23.10;54.30
8172;DHT22;4127;47.908;10.850;2022-08-14T04:37:24;23.10;54.30
8172;DHT22;4127;47.908;10.850;2022-08-14T04:40:12;23.20;54.40
8172;DHT22;4127;47.908;10.850;2022-08-14T04:42:57;23.10;54.30
8172;DHT22;4127;47.908;10.850;2022-08-14T04:45:43;23.10;54.20
8172;DHT22;4127;47.908;10.850;2022-08-14T04:48:12;23.10;54.20
8172;DHT22;4127;47.908;10.850;2022-08-14T04:51:00;23.10;54.70
8172;DHT22;4127;47.908;10.850;2022-08-14T04:53:30;23.10;54.30
8172;DHT22;4127;47.908;10.850;2022-08-14T04:56:02;23.10;54.30
8172;DHT22;4127;47.908;10.850;2022-08-14T04:58:32;23.10;54.30
8172;DHT22;4127;47.908;10.850;2022-08-14T05:01:01;23.00;54.30
8172;DHT22;4127;47.908;10.850;2022-08-14T05:03:31;23.10;54.40
8172;DHT22;4127;47.908;10.850;2022-08-14T05:06:01;23.00;54.30
8172;DHT22;4127;47.908;10.850;2022-08-14T05:08:30;23.00;54.30
8172;DHT22;4127;47.908;10.850;2022-08-14T05:11:16;23.00;54.40
8172;DHT22;4127;47.908;10.850;2022-08-14T05:13:45;23.00;54.30
8172;DHT22;4127;47.908;10.850;2022-08-14T05:16:32;23.00;54.40
8172;DHT22;4127;47.908;10.850;2022-08-14T05:18:59;23.00;54.40
8172;DHT22;4127;47.908;10.850;2022-08-14T05:21:46;23.00;54.40
8172;DHT22;4127;47.908;10.850;2022-08-14T05:24:32;23.00;54.40
8172;DHT22;4127;47.908;10.850;2022-08-14T05:27:00;23.00;55.00
8172;DHT22;4127;47.908;10.850;2022-08-14T05:29:28;23.00;55.00
8172;DHT22;4127;47.908;10.850;2022-08-14T05:31:58;23.00;54.50
8172;DHT22;4127;47.908;10.850;2022-08-14T05:34:27;23.00;54.40
8172;DHT22;4127;47.908;10.850;2022-08-14T05:36:57;23.10;54.50
8172;DHT22;4127;47.908;10.850;2022-08-14T05:39:29;23.10;54.50
8172;DHT22;4127;47.908;10.850;2022-08-14T05:41:57;23.10;54.50
8172;DHT22;4127;47.908;10.850;2022-08-14T05:44:26;23.10;54.50
8172;DHT22;4127;47.908;10.850;2022-08-14T05:46:57;23.10;54.50
8172;DHT22;4127;47.908;10.850;2022-08-14T05:49:24;23.10;54.50
8172;DHT22;4127;47.908;10.850;2022-08-14T05:52:00;23.10;54.50
8172;DHT22;4127;47.908;10.850;2022-08-14T05:54:29;23.10;54.50
8172;DHT22;4127;47.908;10.850;2022-08-14T05:57:02;23.10;54.50
8172;DHT22;4127;47.908;10.850;2022-08-14T05:59:30;23.10;54.50
8172;DHT22;4127;47.908;10.850;2022-08-14T06:02:06;23.10;54.50
8172;DHT22;4127;47.908;10.850;2022-08-14T06:04:36;23.10;54.50
8172;DHT22;4127;47.908;10.850;2022-08-14T06:07:03;23.10;54.60
8172;DHT22;4127;47.908;10.850;2022-08-14T06:09:30;23.10;54.50
8172;DHT22;4127;47.908;10.850;2022-08-14T06:12:01;23.10;54.50
8172;DHT22;4127;47.908;10.850;2022-08-14T06:14:29;23.10;54.60
8172;DHT22;4127;47.908;10.850;2022-08-14T06:16:57;23.10;54.60
8172;DHT22;4127;47.908;10.850;2022-08-14T06:19:25;23.10;54.60
8172;DHT22;4127;47.908;10.850;2022-08-14T06:21:52;23.10;54.60
8172;DHT22;4127;47.908;10.850;2022-08-14T06:24:24;23.10;54.60
8172;DHT22;4127;47.908;10.850;2022-08-14T06:26:52;23.10;54.60
8172;DHT22;4127;47.908;10.850;2022-08-14T06:29:30;23.10;54.60
8172;DHT22;4127;47.908;10.850;2022-08-14T06:32:01;23.10;54.60
8172;DHT22;4127;47.908;10.850;2022-08-14T06:34:48;23.10;54.50
8172;DHT22;4127;47.908;10.850;2022-08-14T06:37:42;23.20;54.60
8172;DHT22;4127;47.908;10.850;2022-08-14T06:40:11;23.20;54.50
8172;DHT22;4127;47.908;10.850;2022-08-14T06:42:55;23.20;54.50
8172;DHT22;4127;47.908;10.850;2022-08-14T06:45:30;23.20;54.60
8172;DHT22;4127;47.908;10.850;2022-08-14T06:47:57;23.20;54.60
8172;DHT22;4127;47.908;10.850;2022-08-14T06:50:25;23.20;54.60
8172;DHT22;4127;47.908;10.850;2022-08-14T06:52:56;23.20;54.60
8172;DHT22;4127;47.908;10.850;2022-08-14T06:55:24;23.20;54.70
8172;DHT22;4127;47.908;10.850;2022-08-14T06:57:55;23.30;55.40
8172;DHT22;4127;47.908;10.850;2022-08-14T07:00:25;23.30;54.80
8172;DHT22;4127;47.908;10.850;2022-08-14T07:02:54;23.30;54.70
8172;DHT22;4127;47.908;10.850;2022-08-14T07:05:39;23.30;54.70
8172;DHT22;4127;47.908;10.850;2022-08-14T07:08:27;23.30;54.70
8172;DHT22;4127;47.908;10.850;2022-08-14T07:10:59;23.30;54.70
8172;DHT22;4127;47.908;10.850;2022-08-14T07:13:27;23.30;54.70
8172;DHT22;4127;47.908;10.850;2022-08-14T07:15:57;23.30;54.70
8172;DHT22;4127;47.908;10.850;2022-08-14T07:18:28;23.30;54.80
8172;DHT22;4127;47.908;10.850;2022-08-14T07:20:58;23.30;54.80
8172;DHT22;4127;47.908;10.850;2022-08-14T07:23:26;23.40;54.80
8172;DHT22;4127;47.908;10.850;2022-08-14T07:25:58;23.30;54.80
8172;DHT22;4127;47.908;10.850;2022-08-14T07:28:31;23.40;54.80
8172;DHT22;4127;47.908;10.850;2022-08-14T07:31:00;23.30;54.80
8172;DHT22;4127;47.908;10.850;2022-08-14T07:33:49;23.40;54.90
8172;DHT22;4127;47.908;10.850;2022-08-14T07:36:18;23.40;54.90
8172;DHT22;4127;47.908;10.850;2022-08-14T07:38:57;23.40;55.00
8172;DHT22;4127;47.908;10.850;2022-08-14T07:41:24;23.40;55.10
8172;DHT22;4127;47.908;10.850;2022-08-14T07:44:00;23.40;55.20
8172;DHT22;4127;47.908;10.850;2022-08-14T07:46:47;23.40;55.20
8172;DHT22;4127;47.908;10.850;2022-08-14T07:49:15;23.40;55.10
8172;DHT22;4127;47.908;10.850;2022-08-14T07:51:44;23.40;55.00
8172;DHT22;4127;47.908;10.850;2022-08-14T07:54:15;23.40;55.10
8172;DHT22;4127;47.908;10.850;2022-08-14T07:56:58;23.40;55.20
8172;DHT22;4127;47.908;10.850;2022-08-14T07:59:37;23.40;55.30
8172;DHT22;4127;47.908;10.850;2022-08-14T08:02:11;23.40;55.40
8172;DHT22;4127;47.908;10.850;2022-08-14T08:04:50;23.50;57.20
8172;DHT22;4127;47.908;10.850;2022-08-14T08:07:22;23.60;56.10
8172;DHT22;4127;47.908;10.850;2022-08-14T08:09:56;23.60;55.90
8172;DHT22;4127;47.908;10.850;2022-08-14T08:12:25;23.60;55.90
8172;DHT22;4127;47.908;10.850;2022-08-14T08:14:57;23.60;56.00
8172;DHT22;4127;47.908;10.850;2022-08-14T08:17:33;23.60;56.00
8172;DHT22;4127;47.908;10.850;2022-08-14T08:20:06;23.60;55.70
8172;DHT22;4127;47.908;10.850;2022-08-14T08:22:38;23.60;55.70
8172;DHT22;4127;47.908;10.850;2022-08-14T08:25:09;23.60;55.60
8172;DHT22;4127;47.908;10.850;2022-08-14T08:27:53;23.60;55.70
8172;DHT22;4127;47.908;10.850;2022-08-14T08:30:20;23.60;55.70
8172;DHT22;4127;47.908;10.850;2022-08-14T08:32:50;23.60;55.80
8172;DHT22;4127;47.908;10.850;2022-08-14T08:35:19;23.60;55.80
8172;DHT22;4127;47.908;10.850;2022-08-14T08:37:51;23.60;55.80
8172;DHT22;4127;47.908;10.850;2022-08-14T08:40:42;23.60;55.80
8172;DHT22;4127;47.908;10.850;2022-08-14T08:46:05;23.70;57.30
8172;DHT22;4127;47.908;10.850;2022-08-14T08:51:32;23.70;56.70
8172;DHT22;4127;47.908;10.850;2022-08-14T08:54:14;23.70;57.70
8172;DHT22;4127;47.908;10.850;2022-08-14T08:56:46;23.70;56.90
8172;DHT22;4127;47.908;10.850;2022-08-14T08:59:20;23.70;56.50
8172;DHT22;4127;47.908;10.850;2022-08-14T09:01:54;23.70;57.20
8172;DHT22;4127;47.908;10.850;2022-08-14T09:04:33;23.70;57.20
8172;DHT22;4127;47.908;10.850;2022-08-14T09:07:00;23.70;57.40
8172;DHT22;4127;47.908;10.850;2022-08-14T09:09:37;23.70;57.20
8172;DHT22;4127;47.908;10.850;2022-08-14T09:12:25;23.70;57.70
8172;DHT22;4127;47.908;10.850;2022-08-14T09:14:52;23.80;57.50
8172;DHT22;4127;47.908;10.850;2022-08-14T09:17:20;23.80;57.10
8172;DHT22;4127;47.908;10.850;2022-08-14T09:19:52;23.80;57.00
8172;DHT22;4127;47.908;10.850;2022-08-14T09:22:19;23.80;56.80
8172;DHT22;4127;47.908;10.850;2022-08-14T09:25:04;23.80;57.00
8172;DHT22;4127;47.908;10.850;2022-08-14T09:27:34;23.80;56.60
8172;DHT22;4127;47.908;10.850;2022-08-14T09:30:06;23.80;56.70
8172;DHT22;4127;47.908;10.850;2022-08-14T09:36:02;23.90;56.60
8172;DHT22;4127;47.908;10.850;2022-08-14T11:31:45;27.70;47.10
8172;DHT22;4127;47.908;10.850;2022-08-14T11:34:17;28.30;45.50
8172;DHT22;4127;47.908;10.850;2022-08-14T11:37:10;28.40;46.40
8172;DHT22;4127;47.908;10.850;2022-08-14T11:39:57;28.60;46.70
8172;DHT22;4127;47.908;10.850;2022-08-14T11:42:26;28.40;45.60
8172;DHT22;4127;47.908;10.850;2022-08-14T11:45:14;28.30;48.00
8172;DHT22;4127;47.908;10.850;2022-08-14T11:47:44;28.50;44.80
8172;DHT22;4127;47.908;10.850;2022-08-14T11:50:33;28.30;46.90
8172;DHT22;4127;47.908;10.850;2022-08-14T11:53:04;28.10;45.80
8172;DHT22;4127;47.908;10.850;2022-08-14T11:55:36;28.10;47.30
8172;DHT22;4127;47.908;10.850;2022-08-14T11:58:09;28.20;44.30
8172;DHT22;4127;47.908;10.850;2022-08-14T12:00:48;28.10;43.80
8172;DHT22;4127;47.908;10.850;2022-08-14T12:03:18;28.50;47.00
8172;DHT22;4127;47.908;10.850;2022-08-14T12:06:13;28.30;46.40
8172;DHT22;4127;47.908;10.850;2022-08-14T12:09:00;28.50;42.40
8172;DHT22;4127;47.908;10.850;2022-08-14T12:11:38;28.70;45.30
8172;DHT22;4127;47.908;10.850;2022-08-14T12:14:13;29.10;42.80
8172;DHT22;4127;47.908;10.850;2022-08-14T12:17:05;29.00;44.70
8172;DHT22;4127;47.908;10.850;2022-08-14T12:19:50;28.80;41.70
8172;DHT22;4127;47.908;10.850;2022-08-14T12:22:43;28.30;44.00
8172;DHT22;4127;47.908;10.850;2022-08-14T12:25:20;28.30;43.50
8172;DHT22;4127;47.908;10.850;2022-08-14T12:27:52;28.60;43.00
8172;DHT22;4127;47.908;10.850;2022-08-14T12:30:36;28.70;45.00
8172;DHT22;4127;47.908;10.850;2022-08-14T12:33:29;29.20;42.70
8172;DHT22;4127;47.908;10.850;2022-08-14T12:36:01;29.80;41.40
8172;DHT22;4127;47.908;10.850;2022-08-14T12:38:35;28.70;41.10
8172;DHT22;4127;47.908;10.850;2022-08-14T12:41:09;28.30;42.20
8172;DHT22;4127;47.908;10.850;2022-08-14T12:44:11;27.90;42.70
8172;DHT22;4127;47.908;10.850;2022-08-14T12:46:40;28.30;41.70
8172;DHT22;4127;47.908;10.850;2022-08-14T12:49:15;28.60;40.90
8172;DHT22;4127;47.908;10.850;2022-08-14T12:51:55;28.40;41.70
8172;DHT22;4127;47.908;10.850;2022-08-14T12:54:22;28.60;42.80
8172;DHT22;4127;47.908;10.850;2022-08-14T12:57:05;28.60;39.80
8172;DHT22;4127;47.908;10.850;2022-08-14T12:59:34;28.80;40.80
8172;DHT22;4127;47.908;10.850;2022-08-14T13:02:22;29.00;39.50
8172;DHT22;4127;47.908;10.850;2022-08-14T13:04:53;29.10;40.20
8172;DHT22;4127;47.908;10.850;2022-08-14T13:07:21;29.30;40.20
8172;DHT22;4127;47.908;10.850;2022-08-14T13:09:54;29.50;39.30
8172;DHT22;4127;47.908;10.850;2022-08-14T13:12:23;29.50;42.40
8172;DHT22;4127;47.908;10.850;2022-08-14T13:15:03;29.90;41.60
8172;DHT22;4127;47.908;10.850;2022-08-14T13:17:45;30.10;41.30
8172;DHT22;4127;47.908;10.850;2022-08-14T13:20:20;30.10;41.80
8172;DHT22;4127;47.908;10.850;2022-08-14T13:22:51;29.70;42.70
8172;DHT22;4127;47.908;10.850;2022-08-14T13:25:23;29.30;42.00
8172;DHT22;4127;47.908;10.850;2022-08-14T13:27:53;29.00;41.80
8172;DHT22;4127;47.908;10.850;2022-08-14T13:30:22;28.80;41.70
8172;DHT22;4127;47.908;10.850;2022-08-14T13:32:54;29.20;41.00
8172;DHT22;4127;47.908;10.850;2022-08-14T13:35:24;29.70;43.40
8172;DHT22;4127;47.908;10.850;2022-08-14T13:37:51;29.50;43.40
8172;DHT22;4127;47.908;10.850;2022-08-14T13:40:21;29.20;43.10
8172;DHT22;4127;47.908;10.850;2022-08-14T13:42:53;28.80;43.60
8172;DHT22;4127;47.908;10.850;2022-08-14T13:45:24;28.90;43.10
8172;DHT22;4127;47.908;10.850;2022-08-14T13:48:12;29.30;42.80
8172;DHT22;4127;47.908;10.850;2022-08-14T13:50:59;29.90;41.20
8172;DHT22;4127;47.908;10.850;2022-08-14T13:53:31;30.00;41.40
8172;DHT22;4127;47.908;10.850;2022-08-14T13:56:04;29.60;43.20
8172;DHT22;4127;47.908;10.850;2022-08-14T13:58:33;29.00;40.90
8172;DHT22;4127;47.908;10.850;2022-08-14T14:01:01;28.90;39.80
8172;DHT22;4127;47.908;10.850;2022-08-14T14:03:33;28.60;40.50
8172;DHT22;4127;47.908;10.850;2022-08-14T14:06:04;29.10;42.50
8172;DHT22;4127;47.908;10.850;2022-08-14T14:08:34;29.30;42.30
8172;DHT22;4127;47.908;10.850;2022-08-14T14:11:14;29.00;41.40
8172;DHT22;4127;47.908;10.850;2022-08-14T14:13:43;28.70;41.50
8172;DHT22;4127;47.908;10.850;2022-08-14T14:16:13;28.60;42.80
8172;DHT22;4127;47.908;10.850;2022-08-14T14:18:54;28.50;41.00
8172;DHT22;4127;47.908;10.850;2022-08-14T14:21:35;28.60;42.60
8172;DHT22;4127;47.908;10.850;2022-08-14T14:24:02;28.30;40.70
8172;DHT22;4127;47.908;10.850;2022-08-14T14:26:31;28.40;41.90
8172;DHT22;4127;47.908;10.850;2022-08-14T14:29:02;28.60;41.30
8172;DHT22;4127;47.908;10.850;2022-08-14T14:31:35;28.50;43.00
8172;DHT22;4127;47.908;10.850;2022-08-14T14:34:07;28.40;42.50
8172;DHT22;4127;47.908;10.850;2022-08-14T14:36:57;28.80;40.70
8172;DHT22;4127;47.908;10.850;2022-08-14T14:39:29;29.10;41.00
8172;DHT22;4127;47.908;10.850;2022-08-14T14:42:02;28.60;41.10
8172;DHT22;4127;47.908;10.850;2022-08-14T14:44:35;28.50;40.70
8172;DHT22;4127;47.908;10.850;2022-08-14T14:47:10;28.40;41.50
8172;DHT22;4127;47.908;10.850;2022-08-14T14:49:37;28.50;42.80
8172;DHT22;4127;47.908;10.850;2022-08-14T14:52:21;28.40;42.30
8172;DHT22;4127;47.908;10.850;2022-08-14T14:54:58;28.60;43.70
8172;DHT22;4127;47.908;10.850;2022-08-14T14:57:26;28.70;43.60
8172;DHT22;4127;47.908;10.850;2022-08-14T15:00:05;28.40;41.40
8172;DHT22;4127;47.908;10.850;2022-08-14T15:02:46;28.40;41.70
8172;DHT22;4127;47.908;10.850;2022-08-14T15:05:17;28.30;41.10
8172;DHT22;4127;47.908;10.850;2022-08-14T15:07:46;28.10;42.20
8172;DHT22;4127;47.908;10.850;2022-08-14T15:10:18;28.20;42.60
8172;DHT22;4127;47.908;10.850;2022-08-14T15:12:56;28.20;41.70
8172;DHT22;4127;47.908;10.850;2022-08-14T15:15:29;28.10;42.40
8172;DHT22;4127;47.908;10.850;2022-08-14T15:17:58;27.90;42.10
8172;DHT22;4127;47.908;10.850;2022-08-14T15:20:27;27.90;43.00
8172;DHT22;4127;47.908;10.850;2022-08-14T15:23:00;28.20;42.40
8172;DHT22;4127;47.908;10.850;2022-08-14T15:25:39;28.30;42.50
8172;DHT22;4127;47.908;10.850;2022-08-14T15:28:06;28.30;43.10
8172;DHT22;4127;47.908;10.850;2022-08-14T15:30:46;28.20;43.40
8172;DHT22;4127;47.908;10.850;2022-08-14T15:33:25;28.10;42.70
8172;DHT22;4127;47.908;10.850;2022-08-14T15:36:30;27.90;42.30
8172;DHT22;4127;47.908;10.850;2022-08-14T15:39:00;27.60;42.20
8172;DHT22;4127;47.908;10.850;2022-08-14T15:41:28;27.60;43.10
8172;DHT22;4127;47.908;10.850;2022-08-14T15:44:07;27.70;43.10
8172;DHT22;4127;47.908;10.850;2022-08-14T15:46:54;27.70;44.30
8172;DHT22;4127;47.908;10.850;2022-08-14T15:49:24;27.90;44.00
8172;DHT22;4127;47.908;10.850;2022-08-14T15:52:00;28.00;44.00
8172;DHT22;4127;47.908;10.850;2022-08-14T15:54:29;27.40;43.60
8172;DHT22;4127;47.908;10.850;2022-08-14T15:57:06;27.20;46.20
8172;DHT22;4127;47.908;10.850;2022-08-14T15:59:35;27.30;44.00
8172;DHT22;4127;47.908;10.850;2022-08-14T16:02:21;27.40;45.40
8172;DHT22;4127;47.908;10.850;2022-08-14T16:04:53;27.30;44.80
8172;DHT22;4127;47.908;10.850;2022-08-14T16:07:20;27.40;44.80
8172;DHT22;4127;47.908;10.850;2022-08-14T16:09:51;27.50;43.70
8172;DHT22;4127;47.908;10.850;2022-08-14T16:12:37;27.60;44.50
8172;DHT22;4127;47.908;10.850;2022-08-14T16:15:13;27.30;46.20
8172;DHT22;4127;47.908;10.850;2022-08-14T16:17:43;27.10;45.30
8172;DHT22;4127;47.908;10.850;2022-08-14T16:20:11;27.00;46.40
8172;DHT22;4127;47.908;10.850;2022-08-14T16:22:58;26.80;46.80
8172;DHT22;4127;47.908;10.850;2022-08-14T16:25:26;26.90;46.00
8172;DHT22;4127;47.908;10.850;2022-08-14T16:28:14;26.90;47.00
8172;DHT22;4127;47.908;10.850;2022-08-14T16:30:53;26.70;47.10
8172;DHT22;4127;47.908;10.850;2022-08-14T16:33:21;26.90;47.40
8172;DHT22;4127;47.908;10.850;2022-08-14T16:36:08;27.20;46.40
8172;DHT22;4127;47.908;10.850;2022-08-14T16:38:59;27.00;46.70
8172;DHT22;4127;47.908;10.850;2022-08-14T16:41:27;26.70;47.20
8172;DHT22;4127;47.908;10.850;2022-08-14T16:43:58;26.60;47.70
8172;DHT22;4127;47.908;10.850;2022-08-14T16:46:35;26.70;46.30
8172;DHT22;4127;47.908;10.850;2022-08-14T16:49:10;26.90;46.30
8172;DHT22;4127;47.908;10.850;2022-08-14T16:51:39;27.00;45.90
8172;DHT22;4127;47.908;10.850;2022-08-14T16:54:12;27.00;47.30
8172;DHT22;4127;47.908;10.850;2022-08-14T16:57:30;26.70;48.00
8172;DHT22;4127;47.908;10.850;2022-08-14T16:59:58;26.50;47.00
8172;DHT22;4127;47.908;10.850;2022-08-14T17:02:39;26.60;47.60
8172;DHT22;4127;47.908;10.850;2022-08-14T17:05:24;26.50;48.60
8172;DHT22;4127;47.908;10.850;2022-08-14T17:13:27;26.90;47.50
8172;DHT22;4127;47.908;10.850;2022-08-14T17:16:16;26.80;48.50
8172;DHT22;4127;47.908;10.850;2022-08-14T17:18:56;26.60;48.70
8172;DHT22;4127;47.908;10.850;2022-08-14T17:21:34;26.60;49.20
8172;DHT22;4127;47.908;10.850;2022-08-14T17:24:10;26.50;49.00
8172;DHT22;4127;47.908;10.850;2022-08-14T17:26:57;26.40;49.30
8172;DHT22;4127;47.908;10.850;2022-08-14T17:29:32;26.30;50.40
8172;DHT22;4127;47.908;10.850;2022-08-14T17:32:05;26.10;50.40
8172;DHT22;4127;47.908;10.850;2022-08-14T17:34:52;26.10;50.90
8172;DHT22;4127;47.908;10.850;2022-08-14T17:37:29;26.10;51.30
8172;DHT22;4127;47.908;10.850;2022-08-14T17:40:01;26.10;52.80
8172;DHT22;4127;47.908;10.850;2022-08-14T17:45:25;25.70;54.90
8172;DHT22;4127;47.908;10.850;2022-08-14T17:48:24;25.70;55.30
8172;DHT22;4127;47.908;10.850;2022-08-14T17:51:12;25.50;54.00
8172;DHT22;4127;47.908;10.850;2022-08-14T17:53:40;25.30;52.50
8172;DHT22;4127;47.908;10.850;2022-08-14T17:56:26;25.20;51.60
8172;DHT22;4127;47.908;10.850;2022-08-14T17:59:04;25.00;51.50
8172;DHT22;4127;47.908;10.850;2022-08-14T18:01:36;24.80;52.20
8172;DHT22;4127;47.908;10.850;2022-08-14T18:04:06;24.70;52.80
8172;DHT22;4127;47.908;10.850;2022-08-14T18:06:54;24.60;53.00
8172;DHT22;4127;47.908;10.850;2022-08-14T18:09:44;24.50;52.40
8172;DHT22;4127;47.908;10.850;2022-08-14T18:12:27;24.30;52.60
8172;DHT22;4127;47.908;10.850;2022-08-14T18:17:47;24.00;52.80
8172;DHT22;4127;47.908;10.850;2022-08-14T18:20:21;23.70;52.80
8172;DHT22;4127;47.908;10.850;2022-08-14T18:23:09;23.50;53.00
8172;DHT22;4127;47.908;10.850;2022-08-14T18:25:46;23.40;53.30
8172;DHT22;4127;47.908;10.850;2022-08-14T18:28:15;23.30;53.90
8172;DHT22;4127;47.908;10.850;2022-08-14T18:33:56;23.10;54.60
8172;DHT22;4127;47.908;10.850;2022-08-14T18:39:31;22.80;55.40
8172;DHT22;4127;47.908;10.850;2022-08-14T18:47:20;22.50;56.20
8172;DHT22;4127;47.908;10.850;2022-08-14T18:52:51;22.40;56.50
8172;DHT22;4127;47.908;10.850;2022-08-14T19:00:45;22.10;57.50
8172;DHT22;4127;47.908;10.850;2022-08-14T19:08:21;21.80;58.40
8172;DHT22;4127;47.908;10.850;2022-08-14T19:10:56;21.60;58.90
8172;DHT22;4127;47.908;10.850;2022-08-14T19:16:20;21.50;59.40